Sarles, North Dakota
Current Conditions -  °F | °C
As of 5:35 AM on Friday 31 Oct 2014 (Local Time) from K06D Reporting Station
Clear Clear  
Wind Chill:   Ceiling: Unl
Heat Index: 14°   Visibility: 10mi
Dew Point: 14°   Wind: 6mph
Humidity: 100%   Direction: 190°S
Pressure: 30.55"   Gusts: NA
Location:  48.95°N, 99°W
Report Text: K06D 311035Z AUTO 19005KT 10SM CLR M10/M10 A3055 RMK AO2
Loading
Personal Weather Stations






























Interactive Weather Map
Tropical Storm Tracking
New forecast layout! Learn more

10-Day Weather Forecast

Advertisements
Track Severe Weather on mobile